Time;durP1;ratioP1;P1;durP2;ratioP2;P2;SDS_P1;SDS_P2;PMS_P1;PMS_P2;Temp;Humidity;BMP_temperature;BMP_pressure;BME280_temperature;BME280_humidity;BME280_pressure;Samples;Min_cycle;Max_cycle;Signal;HPM_P1;HPM_P2
2021/12/12 00:01:28;;;;;;;16.37;2.40;;;12.10;99.90;;;;;;5010688;28;20182;-66
2021/12/12 00:04:09;;;;;;;19.17;2.20;;;12.10;99.90;;;;;;5010449;28;20879;-65
2021/12/12 00:06:37;;;;;;;17.77;2.57;;;12.20;99.90;;;;;;5010418;28;20178;-65
2021/12/12 00:09:18;;;;;;;12.00;1.83;;;12.20;99.90;;;;;;5010204;28;20214;-66
2021/12/12 00:11:44;;;;;;;13.67;2.20;;;12.20;99.90;;;;;;5010143;28;20206;-66
2021/12/12 00:14:19;;;;;;;15.97;2.30;;;12.20;99.90;;;;;;5010326;28;20174;-66
2021/12/12 00:16:46;;;;;;;17.23;2.87;;;11.70;99.90;;;;;;5010182;28;20189;-66
2021/12/12 00:19:12;;;;;;;10.90;2.40;;;12.10;99.90;;;;;;5010347;28;20661;-66
2021/12/12 00:21:42;;;;;;;12.50;2.60;;;12.10;99.90;;;;;;5010122;28;20213;-66
2021/12/12 00:24:10;;;;;;;10.87;2.40;;;12.10;99.90;;;;;;5010215;28;20182;-67
2021/12/12 00:26:36;;;;;;;14.73;2.00;;;12.10;99.90;;;;;;5009938;28;20178;-67
2021/12/12 00:29:04;;;;;;;12.13;2.27;;;12.10;99.90;;;;;;5010127;28;20202;-67
2021/12/12 00:31:30;;;;;;;12.43;2.07;;;12.10;99.90;;;;;;5009951;28;20211;-67
2021/12/12 00:33:57;;;;;;;15.47;2.20;;;12.10;99.90;;;;;;5009987;28;20173;-66
2021/12/12 00:36:25;;;;;;;7.90;2.00;;;12.20;99.90;;;;;;5012840;28;20178;-65
2021/12/12 00:39:13;;;;;;;18.50;3.00;;;12.10;99.90;;;;;;5013718;28;20636;-65
2021/12/12 00:41:44;;;;;;;14.67;2.57;;;12.20;99.90;;;;;;5032633;28;20189;-65
2021/12/12 00:44:14;;;;;;;11.10;2.47;;;12.20;99.90;;;;;;5013902;28;20178;-66
2021/12/12 00:46:40;;;;;;;7.23;1.93;;;12.10;99.90;;;;;;5013910;28;20174;-67
2021/12/12 00:49:06;;;;;;;6.33;2.23;;;12.10;99.90;;;;;;5012725;28;20223;-67
2021/12/12 00:51:36;;;;;;;6.53;2.00;;;12.10;99.90;;;;;;5013564;28;20217;-66
2021/12/12 00:54:04;;;;;;;8.93;2.37;;;12.10;99.90;;;;;;5013502;28;20174;-65
2021/12/12 00:56:31;;;;;;;10.13;2.57;;;12.10;99.90;;;;;;5013811;28;20174;-66
2021/12/12 00:58:57;;;;;;;9.47;2.70;;;12.10;99.90;;;;;;5013622;28;20605;-66
2021/12/12 01:01:34;;;;;;;10.83;2.77;;;12.10;99.90;;;;;;5013918;28;20602;-66
2021/12/12 01:04:09;;;;;;;8.43;2.53;;;12.00;99.90;;;;;;5013624;28;20170;-66
2021/12/12 01:06:36;;;;;;;10.60;3.13;;;12.00;99.90;;;;;;5013157;28;20178;-66
2021/12/12 01:09:06;;;;;;;11.27;3.40;;;12.00;99.90;;;;;;5013881;28;20182;-66
2021/12/12 01:11:39;;;;;;;9.00;3.13;;;12.00;99.90;;;;;;5013734;28;20210;-66
2021/12/12 01:14:09;;;;;;;10.37;2.97;;;12.00;99.90;;;;;;5013763;28;20175;-66
2021/12/12 01:16:44;;;;;;;9.50;3.07;;;12.00;99.90;;;;;;5014140;28;20208;-66
2021/12/12 01:19:19;;;;;;;12.07;2.87;;;11.90;99.90;;;;;;5013595;28;20258;-66
2021/12/12 01:21:49;;;;;;;10.87;3.30;;;12.00;99.90;;;;;;5013554;28;20191;-65
2021/12/12 01:24:22;;;;;;;8.20;3.43;;;12.00;99.90;;;;;;5013307;28;20183;-65
2021/12/12 01:26:48;;;;;;;13.23;3.23;;;11.90;99.90;;;;;;5013292;28;20171;-65
2021/12/12 01:29:14;;;;;;;7.33;2.77;;;12.00;99.90;;;;;;5013364;28;20492;-65
2021/12/12 01:31:46;;;;;;;6.27;2.30;;;12.00;99.90;;;;;;5013400;28;20214;-65
2021/12/12 01:34:16;;;;;;;7.20;2.27;;;11.30;99.90;;;;;;5013272;28;20584;-65
2021/12/12 01:36:51;;;;;;;7.90;2.63;;;12.10;99.90;;;;;;5013375;28;20170;-65
2021/12/12 01:39:22;;;;;;;5.73;2.17;;;12.10;99.90;;;;;;5013307;28;20185;-65
2021/12/12 01:41:56;;;;;;;5.30;2.20;;;12.10;99.90;;;;;;5013259;28;20316;-65
2021/12/12 01:44:31;;;;;;;7.67;1.90;;;12.10;99.90;;;;;;5013214;28;20257;-64
2021/12/12 01:47:10;;;;;;;3.23;1.93;;;12.10;99.90;;;;;;5012307;28;20170;-64
2021/12/12 01:49:40;;;;;;;2.47;1.60;;;12.10;99.90;;;;;;5012757;28;20345;-64
2021/12/12 01:52:09;;;;;;;4.13;1.50;;;12.20;99.90;;;;;;5012216;28;20210;-65
2021/12/12 01:54:43;;;;;;;3.47;1.57;;;12.10;99.90;;;;;;5013115;28;20170;-64
2021/12/12 01:57:26;;;;;;;5.00;1.10;;;12.10;99.90;;;;;;5012115;28;20182;-65
2021/12/12 01:59:54;;;;;;;2.07;1.00;;;12.20;99.90;;;;;;5020981;28;20637;-64
2021/12/12 02:02:29;;;;;;;4.47;1.50;;;12.20;99.90;;;;;;5012990;28;20246;-65
2021/12/12 02:04:59;;;;;;;6.20;1.40;;;12.20;99.90;;;;;;5012758;28;20744;-65
2021/12/12 02:07:29;;;;;;;4.20;1.57;;;12.20;99.90;;;;;;5012840;28;20201;-65
2021/12/12 02:10:00;;;;;;;3.03;1.50;;;12.20;99.90;;;;;;5012458;28;20538;-65
2021/12/12 02:12:26;;;;;;;4.90;1.33;;;12.20;99.90;;;;;;5012539;28;20609;-66
2021/12/12 02:14:54;;;;;;;7.67;1.70;;;12.20;99.90;;;;;;5012519;28;20271;-66
2021/12/12 02:17:32;;;;;;;3.80;1.90;;;12.30;99.90;;;;;;5012488;28;20197;-67
2021/12/12 02:20:12;;;;;;;8.37;1.70;;;12.30;99.90;;;;;;5012735;28;20178;-67
2021/12/12 02:36:20;;;;;;;5.83;1.40;;;12.20;99.90;;;;;;5012192;28;20704;-67
2021/12/12 02:38:50;;;;;;;3.57;1.30;;;12.30;99.90;;;;;;5011987;28;20633;-63
2021/12/12 02:41:17;;;;;;;4.40;1.20;;;12.30;99.90;;;;;;5012044;28;20182;-64
2021/12/12 02:44:05;;;;;;;2.63;1.10;;;12.30;99.90;;;;;;5011611;28;20186;-64
2021/12/12 02:46:35;;;;;;;4.67;1.20;;;12.30;99.90;;;;;;5011982;28;20182;-64
2021/12/12 02:49:08;;;;;;;3.07;1.00;;;12.30;99.90;;;;;;5011652;28;20276;-64
2021/12/12 02:51:38;;;;;;;2.40;1.37;;;12.30;99.90;;;;;;5011940;28;20289;-64
2021/12/12 02:54:04;;;;;;;2.90;1.77;;;12.30;99.90;;;;;;5011621;28;20170;-63
2021/12/12 02:56:36;;;;;;;5.27;1.70;;;12.30;99.90;;;;;;5011924;28;20637;-64
2021/12/12 02:59:07;;;;;;;4.17;1.80;;;12.20;99.90;;;;;;5011919;28;20198;-66
2021/12/12 03:01:40;;;;;;;6.07;2.17;;;12.20;99.90;;;;;;5027120;28;20207;-64
2021/12/12 03:04:07;;;;;;;5.27;2.10;;;12.20;99.90;;;;;;5011669;28;20171;-64
2021/12/12 03:06:35;;;;;;;6.00;2.30;;;12.20;99.90;;;;;;5010455;28;20173;-64
2021/12/12 03:09:09;;;;;;;8.43;2.30;;;12.20;99.90;;;;;;5011829;28;20630;-66
2021/12/12 03:11:42;;;;;;;5.63;2.50;;;12.20;99.90;;;;;;5011111;28;20260;-64
2021/12/12 03:14:08;;;;;;;8.57;2.40;;;12.20;99.90;;;;;;5010725;28;20645;-65
2021/12/12 03:16:34;;;;;;;3.03;1.67;;;12.20;99.90;;;;;;5011225;28;20178;-62
2021/12/12 03:19:00;;;;;;;7.53;2.30;;;12.20;99.90;;;;;;5010738;28;20205;-62
2021/12/12 03:21:32;;;;;;;6.27;2.30;;;12.20;99.90;;;;;;5010660;28;20184;-62
2021/12/12 03:24:06;;;;;;;6.13;1.80;;;12.20;99.90;;;;;;5011205;28;20170;-62
2021/12/12 03:26:32;;;;;;;6.23;2.20;;;12.10;99.90;;;;;;5011298;28;20250;-62
2021/12/12 03:29:00;;;;;;;5.07;2.30;;;12.20;99.90;;;;;;5011447;28;20186;-62
2021/12/12 03:31:33;;;;;;;2.87;1.67;;;12.20;99.90;;;;;;5011173;28;20736;-62
2021/12/12 03:34:00;;;;;;;5.47;2.03;;;12.20;99.90;;;;;;5011420;28;20178;-62
2021/12/12 03:36:27;;;;;;;9.37;1.77;;;12.20;99.90;;;;;;5010838;28;20177;-62
2021/12/12 03:39:10;;;;;;;4.93;1.70;;;12.20;99.90;;;;;;5010531;28;20634;-62
2021/12/12 03:41:37;;;;;;;5.53;1.50;;;12.20;99.90;;;;;;5010432;28;20192;-66
2021/12/12 03:44:07;;;;;;;5.57;1.60;;;12.20;99.90;;;;;;5009252;28;20209;-65
2021/12/12 03:46:35;;;;;;;5.33;1.47;;;12.20;99.90;;;;;;5010981;28;20233;-64
2021/12/12 03:49:01;;;;;;;2.20;1.30;;;12.20;99.90;;;;;;5010877;28;20225;-65
2021/12/12 03:51:30;;;;;;;4.07;1.80;;;12.30;99.90;;;;;;5009746;28;20206;-65
2021/12/12 03:53:56;;;;;;;4.83;1.67;;;12.20;99.90;;;;;;5011146;28;20213;-65
2021/12/12 03:56:23;;;;;;;3.70;2.00;;;12.20;99.90;;;;;;5011053;28;20236;-65
2021/12/12 03:58:50;;;;;;;6.43;1.70;;;12.20;99.90;;;;;;5011127;28;20185;-65
2021/12/12 04:01:33;;;;;;;2.23;1.43;;;12.20;99.90;;;;;;5011226;28;20174;-64
2021/12/12 04:04:10;;;;;;;3.60;1.53;;;12.20;99.90;;;;;;5010693;28;20201;-65
2021/12/12 04:06:35;;;;;;;3.53;1.90;;;12.20;99.90;;;;;;5010982;28;20177;-65
2021/12/12 04:09:03;;;;;;;8.63;1.67;;;12.20;99.90;;;;;;5010830;28;20183;-66
2021/12/12 04:11:33;;;;;;;6.23;1.80;;;12.20;99.90;;;;;;5013617;28;20202;-66
2021/12/12 04:14:02;;;;;;;5.23;1.80;;;12.10;99.90;;;;;;5016279;28;20206;-66
2021/12/12 04:16:30;;;;;;;5.53;1.70;;;12.10;99.90;;;;;;5014508;28;20224;-66
2021/12/12 04:18:57;;;;;;;3.80;1.73;;;11.70;99.90;;;;;;5014737;28;20171;-66
2021/12/12 04:21:24;;;;;;;5.97;1.70;;;12.20;99.90;;;;;;5014848;28;20174;-66
2021/12/12 04:23:50;;;;;;;5.50;1.80;;;12.20;99.90;;;;;;5014486;28;20178;-62
2021/12/12 04:26:22;;;;;;;4.03;1.80;;;12.20;99.90;;;;;;5014652;28;20178;-62
2021/12/12 04:29:15;;;;;;;4.77;1.70;;;12.20;99.90;;;;;;5014590;28;20167;-62
2021/12/12 04:31:44;;;;;;;6.03;1.57;;;12.20;99.90;;;;;;5014434;28;20221;-63
2021/12/12 04:34:10;;;;;;;5.77;1.50;;;12.20;99.90;;;;;;5029395;28;20193;-62
2021/12/12 04:36:42;;;;;;;5.57;1.67;;;12.20;99.90;;;;;;5014551;28;20174;-62
2021/12/12 04:39:17;;;;;;;5.47;1.67;;;12.20;99.90;;;;;;5014494;28;20170;-62
2021/12/12 04:41:44;;;;;;;7.07;1.50;;;12.20;99.90;;;;;;5011742;28;20283;-62
2021/12/12 04:44:10;;;;;;;5.53;1.60;;;12.20;99.90;;;;;;5014018;28;20266;-62
2021/12/12 04:49:57;;;;;;;9.97;1.80;;;12.20;99.90;;;;;;5014019;28;20221;-63
2021/12/12 04:52:46;;;;;;;5.93;1.30;;;12.20;99.90;;;;;;5013755;28;20237;-63
2021/12/12 04:55:19;;;;;;;6.10;1.10;;;12.10;99.90;;;;;;5013967;28;20560;-62
2021/12/12 04:57:58;;;;;;;6.57;1.20;;;12.20;99.90;;;;;;5014225;28;20167;-63
2021/12/12 05:00:36;;;;;;;7.17;1.30;;;12.20;99.90;;;;;;5014116;28;20644;-63
2021/12/12 05:03:20;;;;;;;2.73;1.00;;;12.20;99.90;;;;;;4994221;28;20630;-63
2021/12/12 05:05:52;;;;;;;3.50;1.00;;;12.20;99.90;;;;;;4994321;28;20668;-63
2021/12/12 05:08:33;;;;;;;4.60;1.13;;;12.20;99.90;;;;;;4994378;28;20705;-62
2021/12/12 05:11:04;;;;;;;7.53;1.23;;;12.20;99.90;;;;;;4994283;28;20223;-62
2021/12/12 05:13:43;;;;;;;3.20;1.07;;;12.10;99.90;;;;;;4994292;28;20277;-63
2021/12/12 05:16:16;;;;;;;6.97;1.40;;;12.10;99.90;;;;;;4994046;28;20167;-62
2021/12/12 05:18:50;;;;;;;5.53;1.50;;;12.10;99.90;;;;;;4994057;28;20168;-63
2021/12/12 05:21:20;;;;;;;6.13;1.20;;;12.10;99.90;;;;;;4993303;28;20266;-63
2021/12/12 05:23:49;;;;;;;8.17;1.53;;;12.10;99.90;;;;;;5010525;28;20232;-66
2021/12/12 05:26:36;;;;;;;6.07;1.23;;;12.10;99.90;;;;;;5013560;28;20694;-63
2021/12/12 05:29:12;;;;;;;8.03;1.20;;;12.10;99.90;;;;;;5013276;28;20179;-62
2021/12/12 05:31:38;;;;;;;4.50;1.50;;;12.10;99.90;;;;;;5013401;28;20209;-63
2021/12/12 05:34:05;;;;;;;7.93;1.30;;;12.10;99.90;;;;;;5013359;28;20163;-62
2021/12/12 05:36:33;;;;;;;7.80;1.17;;;12.10;99.90;;;;;;5013343;28;20664;-62
2021/12/12 05:39:01;;;;;;;5.40;1.07;;;12.10;99.90;;;;;;5013313;28;20369;-63
2021/12/12 05:41:28;;;;;;;5.70;1.00;;;12.10;99.90;;;;;;5013167;28;20170;-62
2021/12/12 05:43:56;;;;;;;8.97;1.43;;;12.10;99.90;;;;;;5013001;28;20249;-63
2021/12/12 05:46:23;;;;;;;10.63;1.53;;;12.10;99.90;;;;;;5012977;28;20277;-63
2021/12/12 05:48:51;;;;;;;8.67;1.10;;;12.10;99.90;;;;;;5013091;28;20229;-63
2021/12/12 05:51:17;;;;;;;9.37;1.40;;;12.10;99.90;;;;;;5012765;28;20641;-63
2021/12/12 05:53:43;;;;;;;9.73;1.40;;;12.10;99.90;;;;;;5012490;28;20214;-63
2021/12/12 05:56:10;;;;;;;10.60;1.33;;;12.10;99.90;;;;;;5013081;28;20222;-63
2021/12/12 05:58:37;;;;;;;8.93;1.10;;;12.10;99.90;;;;;;5013094;28;20210;-63
2021/12/12 06:01:08;;;;;;;9.97;1.00;;;12.10;99.90;;;;;;5013037;28;20198;-64
2021/12/12 06:03:38;;;;;;;8.67;1.23;;;12.10;99.90;;;;;;5012924;28;20225;-64
2021/12/12 06:06:11;;;;;;;12.60;1.23;;;12.10;99.90;;;;;;5012747;28;20202;-64
2021/12/12 06:08:40;;;;;;;10.60;1.37;;;12.20;99.90;;;;;;5012757;28;20642;-63
2021/12/12 06:11:06;;;;;;;15.77;2.20;;;12.20;99.90;;;;;;5012820;28;20254;-63
2021/12/12 06:13:36;;;;;;;12.93;1.27;;;12.10;99.90;;;;;;5012489;28;20206;-63
2021/12/12 06:16:02;;;;;;;13.10;1.47;;;12.10;99.90;;;;;;5012643;28;20178;-67
2021/12/12 06:18:30;;;;;;;11.60;1.67;;;12.20;99.90;;;;;;5012438;28;20189;-64
2021/12/12 06:20:57;;;;;;;10.27;1.70;;;12.20;99.90;;;;;;5012660;28;20255;-62
2021/12/12 06:23:24;;;;;;;9.10;1.37;;;12.20;99.90;;;;;;5012484;28;20254;-62
2021/12/12 06:25:50;;;;;;;17.57;2.10;;;12.20;99.90;;;;;;5012417;28;20205;-61
2021/12/12 06:28:23;;;;;;;10.53;1.87;;;12.20;99.90;;;;;;5012467;28;20221;-62
2021/12/12 06:30:49;;;;;;;15.50;1.93;;;12.20;99.90;;;;;;5012266;28;20181;-62
2021/12/12 06:33:15;;;;;;;18.40;1.70;;;12.20;99.90;;;;;;5011519;28;20210;-61
2021/12/12 06:35:41;;;;;;;12.87;2.30;;;12.20;99.90;;;;;;5012183;28;20181;-62
2021/12/12 06:38:10;;;;;;;10.17;1.60;;;12.20;99.90;;;;;;5004599;28;20261;-62
2021/12/12 06:40:37;;;;;;;9.50;1.67;;;12.30;99.90;;;;;;5025407;28;20209;-62
2021/12/12 06:43:08;;;;;;;12.03;1.57;;;12.30;99.90;;;;;;5015379;28;20179;-62
2021/12/12 06:45:35;;;;;;;13.20;1.63;;;12.30;99.90;;;;;;5011755;28;20213;-62
2021/12/12 06:48:04;;;;;;;9.70;1.70;;;12.30;99.90;;;;;;5012172;28;20637;-62
2021/12/12 06:50:33;;;;;;;12.90;2.30;;;12.30;99.90;;;;;;5011807;28;20738;-62
2021/12/12 06:53:00;;;;;;;12.33;1.83;;;12.30;99.90;;;;;;5011713;28;20230;-64
2021/12/12 06:55:26;;;;;;;9.80;1.70;;;12.30;99.90;;;;;;5011995;28;20540;-62
2021/12/12 06:57:52;;;;;;;12.43;1.60;;;12.30;99.90;;;;;;5011912;28;20174;-62
2021/12/12 07:00:21;;;;;;;14.33;1.50;;;12.30;99.90;;;;;;5011833;28;20170;-62
2021/12/12 07:02:48;;;;;;;16.10;1.70;;;12.30;99.90;;;;;;5011863;28;20544;-62
2021/12/12 07:05:20;;;;;;;12.87;1.67;;;12.40;99.90;;;;;;5011880;28;20182;-62
2021/12/12 07:07:47;;;;;;;12.70;1.70;;;12.40;99.90;;;;;;5011261;28;20269;-61
2021/12/12 07:10:14;;;;;;;10.23;1.70;;;12.40;99.90;;;;;;5011445;28;20538;-61
2021/12/12 07:12:42;;;;;;;15.33;2.17;;;12.40;99.90;;;;;;5013764;28;20214;-62
2021/12/12 07:15:11;;;;;;;12.57;2.27;;;12.40;99.90;;;;;;5011267;28;20649;-62
2021/12/12 07:17:38;;;;;;;11.93;1.50;;;12.50;99.90;;;;;;5011463;28;20190;-62
2021/12/12 07:20:06;;;;;;;11.23;1.67;;;12.50;99.90;;;;;;5010220;28;20189;-62
2021/12/12 07:22:33;;;;;;;11.93;1.37;;;12.50;99.90;;;;;;5011523;28;20179;-62
2021/12/12 07:25:04;;;;;;;16.60;2.13;;;12.50;99.90;;;;;;5011060;28;20179;-62
2021/12/12 07:27:31;;;;;;;19.87;1.97;;;12.50;99.90;;;;;;5011490;28;20186;-62
2021/12/12 07:29:58;;;;;;;15.73;1.93;;;12.50;99.90;;;;;;5011034;28;20170;-67
2021/12/12 07:32:25;;;;;;;13.57;2.00;;;12.50;99.90;;;;;;5012641;28;20218;-66
2021/12/12 07:34:51;;;;;;;12.90;2.10;;;12.50;99.90;;;;;;5011396;28;20171;-66
2021/12/12 07:37:17;;;;;;;18.47;2.13;;;12.50;99.90;;;;;;5011209;28;20177;-67
2021/12/12 07:39:45;;;;;;;15.07;2.17;;;12.50;99.90;;;;;;5010423;28;20170;-67
2021/12/12 07:42:13;;;;;;;20.87;2.53;;;12.50;99.90;;;;;;5010775;28;20171;-66
2021/12/12 07:44:40;;;;;;;21.93;2.13;;;12.50;99.90;;;;;;5009562;28;20206;-72
2021/12/12 07:47:08;;;;;;;14.53;2.20;;;12.50;99.90;;;;;;4996951;28;20201;-72
2021/12/12 07:49:37;;;;;;;16.67;2.93;;;12.50;99.90;;;;;;5018001;28;20225;-72
2021/12/12 07:52:07;;;;;;;13.77;2.17;;;12.30;99.90;;;;;;5008557;28;20674;-73
2021/12/12 07:54:33;;;;;;;18.33;2.60;;;12.50;99.90;;;;;;5010661;28;20213;-73
2021/12/12 07:57:01;;;;;;;18.50;2.20;;;12.50;99.90;;;;;;5010955;28;20672;-73
2021/12/12 07:59:27;;;;;;;12.83;2.23;;;12.50;99.90;;;;;;5010972;28;20177;-72
2021/12/12 08:01:53;;;;;;;16.33;2.20;;;12.50;99.90;;;;;;5010484;28;20641;-73
2021/12/12 08:04:25;;;;;;;12.20;1.97;;;12.50;99.90;;;;;;5010918;28;20240;-72
2021/12/12 08:06:51;;;;;;;24.47;2.57;;;12.50;99.90;;;;;;5010071;28;20179;-72
2021/12/12 08:09:18;;;;;;;14.97;2.17;;;12.50;99.90;;;;;;5009785;28;20170;-69
2021/12/12 08:11:45;;;;;;;12.57;2.40;;;12.50;99.90;;;;;;5010735;28;20198;-69
2021/12/12 08:14:14;;;;;;;12.60;2.13;;;12.50;99.90;;;;;;4992669;28;20171;-69
2021/12/12 08:16:41;;;;;;;18.50;2.10;;;12.40;99.90;;;;;;5010725;28;20637;-69
2021/12/12 08:19:07;;;;;;;15.20;2.20;;;12.40;99.90;;;;;;5010730;28;20178;-71
2021/12/12 08:21:34;;;;;;;19.57;2.70;;;12.40;99.90;;;;;;5010244;28;20175;-70
2021/12/12 08:24:08;;;;;;;15.60;2.33;;;12.40;99.90;;;;;;5010349;28;20205;-72
2021/12/12 08:26:37;;;;;;;17.90;2.13;;;12.40;99.90;;;;;;5010396;28;20273;-71
2021/12/12 08:29:08;;;;;;;14.57;2.17;;;12.40;99.90;;;;;;5010191;28;20182;-72
2021/12/12 08:31:35;;;;;;;14.03;2.87;;;12.40;99.90;;;;;;5010131;28;20310;-70
2021/12/12 08:34:02;;;;;;;11.70;1.60;;;12.40;99.90;;;;;;5010163;28;20602;-71
2021/12/12 08:36:30;;;;;;;12.37;2.07;;;12.40;99.90;;;;;;5009722;28;20174;-72
2021/12/12 08:38:56;;;;;;;16.07;1.57;;;12.40;99.90;;;;;;5010882;28;20187;-70
2021/12/12 08:41:22;;;;;;;11.83;2.20;;;12.40;99.90;;;;;;5010823;28;20182;-71
2021/12/12 08:43:48;;;;;;;11.80;1.70;;;12.30;99.90;;;;;;5025829;28;20181;-69
2021/12/12 08:46:15;;;;;;;10.67;2.03;;;12.40;99.90;;;;;;5009437;28;20261;-71
2021/12/12 08:48:46;;;;;;;14.43;1.80;;;11.80;99.90;;;;;;5010462;28;20174;-70
2021/12/12 08:51:19;;;;;;;15.00;2.10;;;12.40;99.90;;;;;;5010573;28;20193;-71
2021/12/12 08:53:49;;;;;;;12.30;2.00;;;12.40;99.90;;;;;;4992745;28;20665;-70
2021/12/12 08:56:29;;;;;;;17.73;2.40;;;12.40;99.90;;;;;;5010827;28;20547;-73
2021/12/12 08:58:56;;;;;;;19.10;2.33;;;12.40;99.90;;;;;;5013482;28;20630;-72
2021/12/12 09:01:22;;;;;;;18.37;2.40;;;12.40;99.90;;;;;;5012894;28;20274;-72
2021/12/12 09:03:58;;;;;;;10.47;2.17;;;12.40;99.90;;;;;;5013601;28;20541;-73
2021/12/12 09:06:32;;;;;;;12.43;2.00;;;12.40;99.90;;;;;;5028823;28;20221;-71
2021/12/12 09:09:08;;;;;;;14.07;2.03;;;12.40;99.90;;;;;;5013866;28;20210;-70
2021/12/12 09:12:04;;;;;;;9.97;1.80;;;12.50;99.90;;;;;;5013689;28;20210;-77
2021/12/12 09:14:39;;;;;;;18.23;1.90;;;12.50;99.90;;;;;;5013626;28;20262;-72
2021/12/12 09:17:31;;;;;;;16.37;1.93;;;12.60;99.90;;;;;;5013251;28;20170;-67
2021/12/12 09:20:04;;;;;;;10.40;2.07;;;12.70;99.90;;;;;;5009742;28;20186;-68
2021/12/12 09:22:35;;;;;;;9.97;1.90;;;13.10;99.90;;;;;;5013615;28;20170;-73
2021/12/12 09:25:23;;;;;;;13.67;2.07;;;13.20;99.90;;;;;;5012656;28;20634;-69
2021/12/12 09:28:06;;;;;;;14.17;1.67;;;13.30;99.90;;;;;;5006969;28;20175;-70
2021/12/12 09:30:32;;;;;;;9.20;1.30;;;13.20;99.90;;;;;;5012963;28;20201;-69
2021/12/12 09:33:22;;;;;;;9.67;1.50;;;13.10;99.90;;;;;;5023604;28;20755;-69
2021/12/12 09:35:50;;;;;;;5.43;1.50;;;13.10;99.90;;;;;;5012328;28;20544;-67
2021/12/12 09:38:30;;;;;;;8.33;1.30;;;13.10;99.90;;;;;;5012504;28;20178;-69
2021/12/12 09:41:29;;;;;;;7.43;1.40;;;13.10;99.90;;;;;;5012994;28;20182;-64
2021/12/12 09:44:23;;;;;;;8.70;1.30;;;13.10;99.90;;;;;;5013069;28;20300;-63
2021/12/12 09:47:11;;;;;;;4.47;1.00;;;13.10;99.90;;;;;;5013291;28;20254;-67
2021/12/12 09:53:02;;;;;;;6.85;0.88;;;13.20;99.90;;;;;;5012879;28;20337;-71
2021/12/12 09:55:34;;;;;;;4.43;1.00;;;13.20;99.90;;;;;;5012460;28;20171;-70
2021/12/12 09:58:06;;;;;;;8.27;1.00;;;13.20;99.90;;;;;;5013192;28;20174;-70
2021/12/12 10:01:04;;;;;;;4.45;1.10;;;13.20;99.90;;;;;;5013005;28;20244;-70
2021/12/12 10:03:53;;;;;;;6.83;1.10;;;13.20;99.90;;;;;;5008648;28;20178;-70
2021/12/12 10:06:43;;;;;;;5.40;1.30;;;13.20;99.90;;;;;;5001263;28;20274;-69
2021/12/12 10:09:15;;;;;;;4.73;0.80;;;13.30;99.90;;;;;;5014052;28;20652;-69
2021/12/12 10:12:12;;;;;;;4.78;0.80;;;13.30;99.90;;;;;;5012214;28;20202;-69
2021/12/12 10:14:50;;;;;;;5.23;0.93;;;13.30;99.90;;;;;;5011371;28;20175;-69
2021/12/12 10:17:48;;;;;;;8.77;1.23;;;13.30;99.90;;;;;;5011733;28;20206;-69
2021/12/12 10:20:30;;;;;;;5.22;0.98;;;13.30;99.90;;;;;;5012070;28;20259;-69
2021/12/12 10:23:15;;;;;;;5.07;0.80;;;13.30;99.90;;;;;;5011231;28;20178;-70
2021/12/12 10:26:21;;;;;;;4.63;1.00;;;13.30;99.90;;;;;;5011687;28;20174;-70
2021/12/12 10:28:57;;;;;;;7.17;1.20;;;13.20;99.90;;;;;;4951320;29;20184;-70
2021/12/12 10:31:30;;;;;;;5.93;1.00;;;13.20;99.90;;;;;;5005977;28;20316;-69
2021/12/12 10:34:40;;;;;;;7.03;1.10;;;13.20;99.90;;;;;;5011937;28;20193;-70
2021/12/12 10:37:54;;;;;;;4.77;1.07;;;13.20;99.90;;;;;;4912265;29;20186;-69
2021/12/12 10:40:52;;;;;;;5.60;0.70;;;13.10;99.90;;;;;;5008170;28;20273;-71
2021/12/12 10:43:25;;;;;;;3.77;0.77;;;13.20;99.90;;;;;;5011886;28;20171;-71
2021/12/12 10:45:58;;;;;;;5.30;0.70;;;13.30;99.90;;;;;;5012279;28;20221;-71
2021/12/12 10:48:32;;;;;;;6.87;0.97;;;13.40;99.90;;;;;;5011971;28;20185;-71
2021/12/12 10:51:16;;;;;;;4.27;0.70;;;13.60;99.90;;;;;;5011724;28;20215;-71
2021/12/12 10:54:10;;;;;;;7.75;0.43;;;13.70;99.90;;;;;;5011898;28;20198;-70
2021/12/12 10:57:05;;;;;;;2.00;0.53;;;13.50;99.90;;;;;;5011469;28;20178;-72
2021/12/12 10:59:36;;;;;;;3.13;0.77;;;13.50;99.90;;;;;;5011745;28;20198;-73
2021/12/12 11:02:07;;;;;;;5.17;0.80;;;13.70;99.90;;;;;;5011141;28;20232;-71
2021/12/12 11:04:54;;;;;;;4.03;0.70;;;14.10;99.90;;;;;;4999655;28;20175;-71
2021/12/12 11:07:31;;;;;;;3.72;0.80;;;14.40;99.90;;;;;;5009664;28;20202;-71
2021/12/12 11:10:16;;;;;;;3.67;1.05;;;14.60;99.90;;;;;;5009609;28;20174;-70
2021/12/12 11:12:51;;;;;;;3.83;0.90;;;14.60;99.90;;;;;;5024554;28;20547;-71
2021/12/12 11:15:48;;;;;;;4.90;1.00;;;14.80;99.90;;;;;;5009998;28;20200;-71
2021/12/12 11:18:25;;;;;;;5.68;0.70;;;14.70;99.90;;;;;;5010571;28;20190;-71
2021/12/12 11:21:09;;;;;;;6.70;0.85;;;15.10;99.90;;;;;;5011447;28;20170;-71
2021/12/12 11:23:42;;;;;;;2.10;0.60;;;15.60;99.90;;;;;;5011257;28;20178;-71
2021/12/12 11:26:13;;;;;;;5.70;1.02;;;15.30;99.90;;;;;;5011040;28;20185;-71
2021/12/12 11:28:54;;;;;;;4.47;1.15;;;15.40;99.90;;;;;;5010255;28;20220;-71
2021/12/12 11:31:32;;;;;;;4.35;1.00;;;15.50;99.90;;;;;;5010797;28;20240;-71
2021/12/12 11:33:58;;;;;;;3.40;0.77;;;15.30;99.90;;;;;;5010234;28;20186;-71
2021/12/12 11:36:34;;;;;;;4.60;0.60;;;15.10;99.90;;;;;;5011168;28;20672;-71
2021/12/12 11:39:27;;;;;;;3.25;0.60;;;14.90;99.90;;;;;;5011191;28;20166;-71
2021/12/12 11:42:08;;;;;;;4.53;0.75;;;14.70;99.90;;;;;;5010794;28;20182;-71
2021/12/12 11:45:09;;;;;;;8.15;0.63;;;14.80;99.90;;;;;;5011080;28;20175;-71
2021/12/12 11:47:50;;;;;;;3.58;0.50;;;14.70;99.90;;;;;;5011167;28;20176;-71
2021/12/12 11:50:36;;;;;;;0.93;0.30;;;14.50;99.90;;;;;;5010934;28;20218;-71
2021/12/12 11:53:07;;;;;;;3.70;0.70;;;14.60;99.90;;;;;;5010896;28;20685;-71
2021/12/12 11:55:38;;;;;;;5.32;0.60;;;14.40;99.90;;;;;;4993498;28;20522;-71
2021/12/12 11:58:22;;;;;;;2.10;0.52;;;14.20;99.90;;;;;;4993305;28;20233;-71
2021/12/12 12:01:40;;;;;;;3.67;0.77;;;14.20;99.90;;;;;;5011248;28;20174;-70
2021/12/12 12:04:35;;;;;;;3.75;0.70;;;14.00;99.90;;;;;;4974034;28;20191;-70
2021/12/12 12:07:19;;;;;;;3.08;0.57;;;14.00;99.90;;;;;;4989863;28;20175;-71
2021/12/12 12:10:01;;;;;;;1.83;0.60;;;14.00;99.90;;;;;;4991338;28;20202;-72
2021/12/12 12:12:45;;;;;;;2.40;0.70;;;14.00;99.90;;;;;;5001088;28;20259;-72
2021/12/12 12:15:38;;;;;;;8.02;0.60;;;14.00;99.90;;;;;;5010915;28;20170;-72
2021/12/12 12:18:38;;;;;;;2.92;0.60;;;14.00;99.90;;;;;;5011006;28;20190;-73
2021/12/12 12:21:18;;;;;;;3.10;0.40;;;14.00;99.90;;;;;;5029019;28;20167;-73
2021/12/12 12:26:53;;;;;;;2.45;0.80;;;14.20;99.90;;;;;;5010814;28;20272;-71
2021/12/12 12:29:21;;;;;;;2.05;0.73;;;14.20;99.90;;;;;;5010603;28;20182;-70
2021/12/12 12:32:26;;;;;;;3.50;0.70;;;14.20;99.90;;;;;;5012194;28;20199;-70
2021/12/12 12:35:13;;;;;;;2.25;0.70;;;14.10;99.90;;;;;;4990662;28;20174;-70
2021/12/12 12:38:16;;;;;;;2.78;0.90;;;14.10;99.90;;;;;;5014349;28;20210;-71
2021/12/12 12:41:06;;;;;;;2.90;0.82;;;14.10;99.90;;;;;;5014573;28;20178;-71
2021/12/12 12:43:53;;;;;;;2.38;0.60;;;14.00;99.90;;;;;;5014277;28;20174;-71
2021/12/12 12:46:37;;;;;;;6.15;0.70;;;13.90;99.90;;;;;;4994501;28;20253;-71
2021/12/12 12:49:42;;;;;;;5.80;0.60;;;13.90;99.90;;;;;;4994433;28;20215;-72
2021/12/12 12:52:27;;;;;;;1.13;0.40;;;13.80;99.90;;;;;;4994512;28;20221;-71
2021/12/12 12:55:46;;;;;;;1.90;0.50;;;13.80;99.90;;;;;;5012610;28;20617;-71
2021/12/12 12:58:43;;;;;;;1.70;0.43;;;13.80;99.90;;;;;;4953371;29;20704;-71
2021/12/12 13:01:16;;;;;;;2.43;0.60;;;13.90;99.90;;;;;;4929995;29;20693;-71
2021/12/12 13:04:12;;;;;;;2.97;0.50;;;13.80;99.90;;;;;;5003580;28;20602;-71
2021/12/12 13:07:05;;;;;;;6.10;0.80;;;13.80;99.90;;;;;;5013767;28;20189;-72
2021/12/12 13:09:39;;;;;;;5.45;0.80;;;13.80;99.90;;;;;;5013833;28;20170;-71
2021/12/12 13:12:14;;;;;;;2.40;0.60;;;13.70;99.90;;;;;;5013509;28;20673;-71
2021/12/12 13:14:49;;;;;;;3.27;0.70;;;12.60;99.90;;;;;;5013043;28;20664;-71
2021/12/12 13:17:39;;;;;;;2.33;0.80;;;13.60;99.90;;;;;;5012847;28;20218;-71
2021/12/12 13:20:25;;;;;;;3.00;0.63;;;13.70;99.90;;;;;;5013211;28;20178;-71
2021/12/12 13:23:21;;;;;;;1.33;0.77;;;13.70;99.90;;;;;;5013582;28;20664;-71
2021/12/12 13:29:20;;;;;;;7.23;1.23;;;13.70;99.90;;;;;;5012102;28;20213;-70
2021/12/12 13:31:58;;;;;;;2.80;0.60;;;13.70;99.90;;;;;;5012932;28;20198;-71
2021/12/12 13:34:49;;;;;;;3.15;0.80;;;13.70;99.90;;;;;;5013131;28;20171;-71
2021/12/12 13:37:35;;;;;;;5.90;1.17;;;13.80;99.90;;;;;;5013058;28;20185;-70
2021/12/12 13:40:19;;;;;;;4.05;0.85;;;13.80;99.90;;;;;;5013046;28;20178;-71
2021/12/12 13:43:05;;;;;;;5.33;1.20;;;13.80;99.90;;;;;;5010822;28;20201;-71
2021/12/12 13:45:40;;;;;;;7.57;0.85;;;13.80;99.90;;;;;;5012395;28;20166;-72
2021/12/12 13:48:27;;;;;;;6.43;1.00;;;13.80;99.90;;;;;;5012309;28;20174;-71